Latest Coastal Weather Observations for Sydney Harbour

IDN60701

Issued at 2:31 am EDT Sunday 22 January 2017 (issued every 10 minutes, with the page automatically refreshed every 10 minutes)

About coastal observations | Map of coastal stations | Coastal observations for NSW | Marine services | Other Formats
Station Details ID: 066196 Name: WEDDING CAKE WEST Lat: -33.84 Lon: 151.26 Height: 6.0 m
Data from the previous 72 hours. | See also: Recent months at Sydney Harbour
Date/Time
EDT
Temp
°C
Wind Pressure Rain since
9am
mm
Weather Cloud Vis
km
Sea
Height
m
Swell
Dir  Spd
kts
Gust
kts
hPa Trend Height
m
Period
s
Dir
22/02:30am 20.8 S 11 14 - - - - - - - - - -
22/02:00am 21.0 S 11 14 - - - - - - - - - -
22/01:30am 21.0 S 10 13 - - - - - - - - - -
22/01:00am 21.0 S 10 12 - - - - - - - - - -
22/12:30am 21.0 S 11 15 - - - - - - - - - -
22/12:00am 21.2 S 10 14 - - - - - - - - - -
 
Date/Time
EDT
Temp
°C
Wind Pressure Rain since
9am
mm
Weather Cloud Vis
km
Sea
Height
m
Swell
Dir  Spd
kts
Gust
kts
hPa Trend Height
m
Period
s
Dir
21/11:30pm 21.1 S 11 15 - - - - - - - - - -
21/11:00pm 21.1 S 10 15 - - - - - - - - - -
21/10:30pm 21.4 S 12 16 - - - - - - - - - -
21/10:00pm 21.6 S 10 14 - - - - - - - - - -
21/09:30pm 21.8 SSE 9 12 - - - - - - - - - -
21/09:00pm 21.8 SSE 9 11 - - - - - - - - - -
21/08:30pm 21.8 SSE 9 13 - - - - - - - - - -
21/08:00pm 21.8 SSE 10 13 - - - - - - - - - -
21/07:30pm 21.9 SE 11 13 - - - - - - - - - -
21/07:00pm 22.1 SE 11 14 - - - - - - - - - -
21/06:30pm 22.5 SE 11 13 - - - - - - - - - -
21/06:00pm 22.4 SE 11 16 - - - - - - - - - -
21/05:30pm 22.3 SE 11 16 - - - - - - - - - -
21/05:00pm 22.4 SE 12 16 - - - - - - - - - -
21/04:30pm 22.4 SE 12 16 - - - - - - - - - -
21/04:00pm 22.0 SE 15 19 - - - - - - - - - -
21/03:30pm 22.1 SSE 14 17 - - - - - - - - - -
21/03:00pm 22.2 SE 14 19 - - - - - - - - - -
21/02:30pm 22.2 SSE 13 18 - - - - - - - - - -
21/02:00pm 22.0 SSE 15 19 - - - - - - - - - -
21/01:30pm 21.9 SSE 16 21 - - - - - - - - - -
21/01:00pm 22.0 SSE 14 19 - - - - - - - - - -
21/12:30pm 22.0 SSE 16 21 - - - - - - - - - -
21/12:00pm 21.7 SSE 16 21 - - - - - - - - - -
21/11:30am 21.8 S 15 20 - - - - - - - - - -
21/11:00am 21.6 S 17 21 - - - - - - - - - -
21/10:30am 21.7 S 17 22 - - - - - - - - - -
21/10:00am 21.7 S 16 21 - - - - - - - - - -
21/09:30am 21.7 S 13 17 - - - - - - - - - -
21/09:00am 21.6 S 14 17 - - - - - - - - - -
21/08:30am 21.5 S 13 16 - - - - - - - - - -
21/08:00am 21.4 S 10 13 - - - - - - - - - -
21/07:30am 21.3 SSW 11 15 - - - - - - - - - -
21/07:00am 21.2 S 13 20 - - - - - - - - - -
21/06:30am 21.3 S 13 19 - - - - - - - - - -
21/06:00am 21.3 S 13 17 - - - - - - - - - -
21/05:30am 21.4 SSW 14 18 - - - - - - - - - -
21/05:00am 21.4 S 17 23 - - - - - - - - - -
21/04:30am 21.3 S 17 22 - - - - - - - - - -
21/04:00am 21.6 S 17 21 - - - - - - - - - -
21/03:30am 21.7 S 16 20 - - - - - - - - - -
21/03:00am 21.6 S 18 22 - - - - - - - - - -
21/02:30am 21.9 S 16 21 - - - - - - - - - -
21/02:00am 22.4 S 19 24 - - - - - - - - - -
21/01:30am 22.5 S 18 23 - - - - - - - - - -
21/01:00am 22.8 S 23 29 - - - - - - - - - -
21/12:30am 22.5 S 17 22 - - - - - - - - - -
21/12:00am 22.6 S 17 23 - - - - - - - - - -
 
Date/Time
EDT
Temp
°C
Wind Pressure Rain since
9am
mm
Weather Cloud Vis
km
Sea
Height
m
Swell
Dir  Spd
kts
Gust
kts
hPa Trend Height
m
Period
s
Dir
20/11:30pm 22.6 S 15 21 - - - - - - - - - -
20/11:00pm 22.7 S 21 27 - - - - - - - - - -
20/10:30pm 22.7 S 24 32 - - - - - - - - - -
20/10:22pm 22.7 S 25 35 - - - - - - - - - -
20/10:00pm 22.9 SSW 30 39 - - - - - - - - - -
20/09:45pm 23.1 SSW 31 41 - - - - - - - - - -
20/09:30pm 23.6 SSW 28 37 - - - - - - - - - -
20/09:21pm 23.9 SSW 27 37 - - - - - - - - - -
20/09:13pm 25.2 WSW 12 27 - - - - - - - - - -
20/09:00pm 27.0 WNW 7 11 - - - - - - - - - -
20/08:30pm 26.6 WNW 8 11 - - - - - - - - - -
20/08:00pm 26.9 WNW 11 14 - - - - - - - - - -
20/07:30pm 27.3 WSW 19 30 - - - - - - - - - -
20/07:19pm 28.8 WSW 9 31 - - - - - - - - - -
20/07:00pm 24.7 NNE 4 6 - - - - - - - - - -
20/06:30pm 24.9 NNE 3 4 - - - - - - - - - -
20/06:00pm 24.4 NNE 4 5 - - - - - - - - - -
20/05:30pm 24.2 NNE 7 11 - - - - - - - - - -
20/05:00pm 24.2 NNE 11 15 - - - - - - - - - -
20/04:30pm 28.0 N 12 18 - - - - - - - - - -
20/04:00pm 28.4 N 15 20 - - - - - - - - - -
20/03:30pm 28.1 N 14 18 - - - - - - - - - -
20/03:00pm 24.1 NNE 16 18 - - - - - - - - - -
20/02:30pm 22.8 NNE 17 19 - - - - - - - - - -
20/02:00pm 21.9 NNE 15 18 - - - - - - - - - -
20/01:30pm 21.5 NNE 14 16 - - - - - - - - - -
20/01:00pm 21.4 NNE 11 13 - - - - - - - - - -
20/12:30pm 21.5 N 7 9 - - - - - - - - - -
20/12:00pm 21.7 NNE 11 13 - - - - - - - - - -
20/11:30am 22.2 NNE 15 17 - - - - - - - - - -
20/11:00am 21.9 NNE 18 19 - - - - - - - - - -
20/10:30am 21.7 NNE 18 21 - - - - - - - - - -
20/10:00am 21.7 NNE 20 23 - - - - - - - - - -
20/09:30am 21.5 NNE 17 20 - - - - - - - - - -
20/09:00am 21.6 NNE 18 21 - - - - - - - - - -
20/08:30am 21.8 NNE 16 19 - - - - - - - - - -
20/08:00am 22.0 N 12 17 - - - - - - - - - -
20/07:30am 21.7 N 14 19 - - - - - - - - - -
20/07:00am 21.7 N 12 15 - - - - - - - - - -
20/06:30am 21.7 NNE 18 23 - - - - - - - - - -
20/06:00am 21.7 NNE 16 19 - - - - - - - - - -
20/05:30am 21.8 NNE 15 19 - - - - - - - - - -
20/05:00am 22.0 NNE 19 25 - - - - - - - - - -
20/04:30am 22.2 NNE 17 22 - - - - - - - - - -
20/04:00am 22.2 N 14 18 - - - - - - - - - -
20/03:30am 22.2 N 17 20 - - - - - - - - - -
20/03:00am 22.1 N 14 17 - - - - - - - - - -
20/02:30am 22.1 N 14 17 - - - - - - - - - -
20/02:00am 22.1 NNE 13 15 - - - - - - - - - -
20/01:30am 22.1 NNE 14 16 - - - - - - - - - -
20/01:00am 22.0 NNE 11 14 - - - - - - - - - -
20/12:30am 21.0 NNE 13 16 - - - - - - - - - -
20/12:00am 20.3 NNE 13 17 - - - - - - - - - -
 
Date/Time
EDT
Temp
°C
Wind Pressure Rain since
9am
mm
Weather Cloud Vis
km
Sea
Height
m
Swell
Dir  Spd
kts
Gust
kts
hPa Trend Height
m
Period
s
Dir
19/11:30pm 20.4 N 12 16 - - - - - - - - - -
19/11:00pm 21.0 NE 16 21 - - - - - - - - - -
19/10:30pm 21.5 NNE 18 22 - - - - - - - - - -
19/10:00pm 21.7 NNE 18 21 - - - - - - - - - -
19/09:30pm 21.9 NNE 17 21 - - - - - - - - - -
19/09:00pm 22.0 NE 18 21 - - - - - - - - - -
19/08:30pm 22.0 NE 18 21 - - - - - - - - - -
19/08:00pm 21.9 NE 17 21 - - - - - - - - - -
19/07:30pm 21.9 NE 15 19 - - - - - - - - - -
19/07:00pm 21.8 NE 15 19 - - - - - - - - - -
19/06:30pm 21.7 NE 16 19 - - - - - - - - - -
19/06:00pm 21.8 NE 15 19 - - - - - - - - - -
19/05:30pm 21.6 NE 15 17 - - - - - - - - - -
19/05:00pm 21.5 NE 14 17 - - - - - - - - - -
19/04:30pm 21.7 ENE 12 15 - - - - - - - - - -
19/04:00pm 21.4 NE 13 16 - - - - - - - - - -
19/03:30pm 21.4 ENE 13 19 - - - - - - - - - -
19/03:00pm 21.4 NE 12 14 - - - - - - - - - -
19/02:30pm 21.5 NE 11 14 - - - - - - - - - -
19/02:00pm 21.3 NE 13 16 - - - - - - - - - -
19/01:30pm 21.4 ENE 11 14 - - - - - - - - - -
19/01:00pm 21.2 NE 11 14 - - - - - - - - - -
19/12:30pm 20.8 NE 11 14 - - - - - - - - - -
19/12:00pm 20.5 ENE 10 14 - - - - - - - - - -
19/11:30am 20.1 E 9 13 - - - - - - - - - -
19/11:00am 20.4 E 5 8 - - - - - - - - - -
19/10:30am 20.2 ESE 6 8 - - - - - - - - - -
19/10:00am 19.3 ESE 9 13 - - - - - - - - - -
19/09:30am 20.5 ESE 9 12 - - - - - - - - - -
19/09:00am 20.6 SE 7 10 - - - - - - - - - -
19/08:30am 21.0 SE 12 15 - - - - - - - - - -
19/08:00am 21.5 ESE 10 13 - - - - - - - - - -
19/07:30am 21.7 SE 7 10 - - - - - - - - - -
19/07:00am 21.8 SSE 4 6 - - - - - - - - - -
19/06:30am 21.7 SSE 6 8 - - - - - - - - - -
19/06:00am 21.5 SSE 9 11 - - - - - - - - - -
19/05:30am 21.7 SSW 8 9 - - - - - - - - - -
19/05:00am 21.7 S 10 11 - - - - - - - - - -
19/04:30am 21.7 S 9 11 - - - - - - - - - -
19/04:00am 21.7 S 10 15 - - - - - - - - - -
19/03:30am 21.7 S 11 15 - - - - - - - - - -
19/03:00am 21.6 S 12 15 - - - - - - - - - -

Other Formats:

Comma delimited format used in spreadsheet applications
http://www.bom.gov.au/fwo/IDN60701/IDN60701.95766.axf

JavaScript Object Notation format (JSON) in row-major order
http://www.bom.gov.au/fwo/IDN60701/IDN60701.95766.json